Hauptseite
METAR-TAF:

METAR-TAF

Flughäfen :

Flughafen Nouakchott-Oumtounsy

Nouakchott, Mauretanien

Breite: 18-18-36N, Länge: 015-58-11W, Höhe: 3 m

Beobachtung

Neuester Wetterbericht von vor 42 Minuten, um 20:30 UTC
Wind 7 kt aus West/Südwest
Temperatur 24°C
Luftfeuchtigkeit 74%
Luftdruck 1011 hPa
Sichtweite: 8000 m

METAR: GQNO 232030Z 25007KT 8000 NSC 24/19 Q1011 NOSIG

Zeit: 21:12 (21:12 UTC)

Prognose

Neuester Wetterbericht von vor 4 Stunden und 12 Minuten, um 17:00 UTC
Gültige Prognose vom 23 um 18 UTC bis 24 um 24 UTC
Wind 14 kt aus Nordwest
Sichtweite: 6000 m
Übergehend zu
vom 24 um 07 UTC bis 24 um 09 UTC
Wind 10 kt aus West
Übergehend zu
vom 24 um 14 UTC bis 24 um 16 UTC
Wind 12 kt aus Nord/Nordwest

TAF: GQNO 231700Z 2318/2424 32014KT 6000 NSC BECMG 2407/2409 26010KT BECMG 2414/2416 33012KT

Wetterbeobachtungen und Prognosen von mehr als 4000 Flughäfen (METAR und TAF Bericht).

Die verfügbaren Stationen werden durch gelbe und rote Markierungen auf der Karte dargestellt.

Führen Sie die Maus auf sie, um den Namen der Station zu sehen.

Darauf klicken, um die Beobachtung von Wetterbeobachtungen und Prognosen zu sehen.

Um die Karte zu ändern : klicken Sie auf den grünen Tasten mit einem schwarzen Kreuz Zum Vergrößern, auf den grünen Button mit einem Gedankenstrich zu verkleinern, oder auf die grünen Pfeile für benachbarte Karten.


METAR-TAF: